Boligee, AL

1:46 AM CDT on July 29, 2014 (GMT -0500)
KALDEMOP3 Elev 121 ft | 32.52 °N, 87.84 °W | Change Station

Current weather conditions updated 8 minutes ago

Clear
Clear
73.0 °F
Feels Like 73 °F
N
0.0
Wind Variable Wind from NE
Gusts 0.0 mph

Today is forecast to be Cooler than yesterday.

Today
High -- | Low -- °F
--% Chance of Precip.
Yesterday
High -- | Low -- °F
Precip. -- in
6:03 AM 7:52 PM
Waxing Crescent, 5% visible
Pressure 30.00 in
Visibility 10.0 miles
Clouds Clear
Heat Index 73 °F
Dew Point 67 °F
Humidity 81%
Rainfall 0.00 in
Snow Depth Not available.
UV 0.0 out of 12
Pollen 4.40 out of 12
Ozone Good
PM2.5 Good
Flu Activity Not available.
METAR KDYA 290615Z AUTO 34004KT 10SM CLR 22/17 A3000 RMK AO2 T02190169

More Conditions Fewer Conditions

Pressure 30.00 in
Visibility 10.0 miles
Clouds Clear
Heat Index 73 °F
Dew Point 67 °F
Humidity 81%
Rainfall 0.00 in
Snow Depth Not available.
UV 0.0 out of 12
Pollen 4.40 out of 12
Ozone Good
PM2.5 Good
Flu Activity Not available.
METAR KDYA 290615Z AUTO 34004KT 10SM CLR 22/17 A3000 RMK AO2 T02190169

More Conditions Fewer Conditions

10-Day Weather Forecast

Almanac

Astronomy

Jul. 29, 2014 Rise Set
Actual Time 6:03 AM CDT 7:52 PM CDT
Civil Twilight 5:36 AM CDT 8:19 PM CDT
Nautical Twilight 5:04 AM CDT 8:52 PM CDT
Astronomical Twilight 4:29 AM CDT 9:27 PM CDT
Moon 8:29 AM CDT 9:17 PM CDT
Length of Visible Light 14h 43m
Length of Day
13h 48m
Tomorrow will be 1m 26s shorter.
Waxing Crescent, 5% of the Moon is Illuminated
Today
Waxing Crescent
Aug 3
First Quarter
Aug 10
Full
Aug 17
Last Quarter
Aug 25
New

Today's Extremes

State Highs State Lows

Community

WunderPhotos

Upload Photos

1,738,651 photos uploaded!

Nearby

Air Quality

  Air Quality AQ Index Pollutant
Yesterday Good
PM10
Yesterday Good
OZONE
Current Good
PM2.5
Current Good
OZONE
Tuesday Good
OZONE
Tuesday Good
PM2.5

Snow Depth

Station Depth Elevation
No new snow has been reported.

Earthquake Activity

City Distance Mag. Time & Date
No recent earthquake activity has been reported nearby.
Minimum magnitude displayed is 2.5.

Coastal Water Temperatures

Place Temperature
No Stations Reporting

Nearby Weather Stations

Station Location Temp. Heat Index Dew Point Humidity Wind Precip. Elev Updated Type
HCN HEFLIN LOCK GAINESVILLE 2 NE AL , Gainesville, AL 70 °F - - - North  at  - 0.00 in / hr 107 ft 12:40 AM CDT MADIS
MesoWest LIVINGSTON-UWA , Livingston, AL 70 °F - 65 °F 85% West  at  0 mph 0.00 in / hr 144 ft 12:00 AM CDT MADIS
Demopolis, AL 73.0 °F 73 °F 67 °F 81% NE  at  0.0 mph 0.00 in / hr 121 ft 1:38 AM CDT Normal
HCN HALE COUNTY JAIL GREENSBORO 2WNW AL , Sawyerville, AL 68 °F - - - North  at  - 0.00 in / hr 280 ft 12:40 AM CDT MADIS

Show More Stations Show Fewer Stations